sensor_id;sensor_type;location;lat;lon;timestamp;P1;durP1;ratioP1;P2;durP2;ratioP2
5456;SDS011;2751;49.802;9.944;2023-04-06T00:00:22;9.87;;;6.30;;
5456;SDS011;2751;49.802;9.944;2023-04-06T00:02:49;12.10;;;7.20;;
5456;SDS011;2751;49.802;9.944;2023-04-06T00:05:17;11.00;;;7.40;;
5456;SDS011;2751;49.802;9.944;2023-04-06T00:07:44;11.00;;;7.47;;
5456;SDS011;2751;49.802;9.944;2023-04-06T00:10:11;11.00;;;7.53;;
5456;SDS011;2751;49.802;9.944;2023-04-06T00:12:39;10.40;;;8.10;;
5456;SDS011;2751;49.802;9.944;2023-04-06T00:15:06;12.20;;;8.57;;
5456;SDS011;2751;49.802;9.944;2023-04-06T00:17:34;11.70;;;7.90;;
5456;SDS011;2751;49.802;9.944;2023-04-06T00:20:01;10.93;;;7.80;;
5456;SDS011;2751;49.802;9.944;2023-04-06T00:22:29;14.77;;;8.87;;
5456;SDS011;2751;49.802;9.944;2023-04-06T00:24:56;11.77;;;8.43;;
5456;SDS011;2751;49.802;9.944;2023-04-06T00:27:23;12.83;;;8.50;;
5456;SDS011;2751;49.802;9.944;2023-04-06T00:29:51;12.40;;;8.50;;
5456;SDS011;2751;49.802;9.944;2023-04-06T00:32:18;15.37;;;8.40;;
5456;SDS011;2751;49.802;9.944;2023-04-06T00:34:45;12.83;;;8.70;;
5456;SDS011;2751;49.802;9.944;2023-04-06T00:37:12;14.90;;;7.90;;
5456;SDS011;2751;49.802;9.944;2023-04-06T00:39:39;10.57;;;7.77;;
5456;SDS011;2751;49.802;9.944;2023-04-06T00:42:07;11.70;;;8.10;;
5456;SDS011;2751;49.802;9.944;2023-04-06T00:44:37;10.77;;;8.10;;
5456;SDS011;2751;49.802;9.944;2023-04-06T00:47:05;16.00;;;8.60;;
5456;SDS011;2751;49.802;9.944;2023-04-06T00:49:33;12.23;;;8.50;;
5456;SDS011;2751;49.802;9.944;2023-04-06T00:52:00;9.40;;;7.50;;
5456;SDS011;2751;49.802;9.944;2023-04-06T00:54:28;15.03;;;8.67;;
5456;SDS011;2751;49.802;9.944;2023-04-06T00:56:56;11.70;;;7.90;;
5456;SDS011;2751;49.802;9.944;2023-04-06T00:59:23;16.33;;;8.97;;
5456;SDS011;2751;49.802;9.944;2023-04-06T01:01:50;12.27;;;8.67;;
5456;SDS011;2751;49.802;9.944;2023-04-06T01:04:18;13.50;;;10.03;;
5456;SDS011;2751;49.802;9.944;2023-04-06T01:06:47;10.10;;;7.73;;
5456;SDS011;2751;49.802;9.944;2023-04-06T01:09:14;12.27;;;7.80;;
5456;SDS011;2751;49.802;9.944;2023-04-06T01:11:41;13.60;;;9.00;;
5456;SDS011;2751;49.802;9.944;2023-04-06T01:14:08;10.93;;;7.80;;
5456;SDS011;2751;49.802;9.944;2023-04-06T01:16:35;12.70;;;8.00;;
5456;SDS011;2751;49.802;9.944;2023-04-06T01:19:06;11.43;;;8.70;;
5456;SDS011;2751;49.802;9.944;2023-04-06T01:21:36;11.03;;;8.10;;
5456;SDS011;2751;49.802;9.944;2023-04-06T01:24:05;10.80;;;7.80;;
5456;SDS011;2751;49.802;9.944;2023-04-06T01:26:33;9.80;;;7.40;;
5456;SDS011;2751;49.802;9.944;2023-04-06T01:29:01;9.07;;;7.57;;
5456;SDS011;2751;49.802;9.944;2023-04-06T01:31:28;10.47;;;8.10;;
5456;SDS011;2751;49.802;9.944;2023-04-06T01:33:55;11.73;;;8.43;;
5456;SDS011;2751;49.802;9.944;2023-04-06T01:36:22;10.27;;;8.40;;
5456;SDS011;2751;49.802;9.944;2023-04-06T01:38:49;9.80;;;7.43;;
5456;SDS011;2751;49.802;9.944;2023-04-06T01:41:18;10.47;;;8.03;;
5456;SDS011;2751;49.802;9.944;2023-04-06T01:43:45;8.97;;;7.83;;
5456;SDS011;2751;49.802;9.944;2023-04-06T01:46:13;12.90;;;8.30;;
5456;SDS011;2751;49.802;9.944;2023-04-06T01:48:39;11.23;;;8.50;;
5456;SDS011;2751;49.802;9.944;2023-04-06T01:51:06;10.80;;;7.60;;
5456;SDS011;2751;49.802;9.944;2023-04-06T01:53:33;11.40;;;7.97;;
5456;SDS011;2751;49.802;9.944;2023-04-06T01:56:00;11.40;;;8.00;;
5456;SDS011;2751;49.802;9.944;2023-04-06T01:58:28;10.93;;;7.80;;
5456;SDS011;2751;49.802;9.944;2023-04-06T02:00:55;9.43;;;7.70;;
5456;SDS011;2751;49.802;9.944;2023-04-06T02:03:22;10.90;;;7.40;;
5456;SDS011;2751;49.802;9.944;2023-04-06T02:05:49;9.47;;;7.33;;
5456;SDS011;2751;49.802;9.944;2023-04-06T02:08:15;10.63;;;7.30;;
5456;SDS011;2751;49.802;9.944;2023-04-06T02:10:42;10.20;;;7.20;;
5456;SDS011;2751;49.802;9.944;2023-04-06T02:13:09;10.27;;;7.50;;
5456;SDS011;2751;49.802;9.944;2023-04-06T02:15:37;13.77;;;8.00;;
5456;SDS011;2751;49.802;9.944;2023-04-06T02:18:04;12.00;;;8.57;;
5456;SDS011;2751;49.802;9.944;2023-04-06T02:20:31;10.47;;;7.63;;
5456;SDS011;2751;49.802;9.944;2023-04-06T02:22:58;11.57;;;8.30;;
5456;SDS011;2751;49.802;9.944;2023-04-06T02:25:26;12.17;;;8.47;;
5456;SDS011;2751;49.802;9.944;2023-04-06T02:27:53;10.70;;;8.00;;
5456;SDS011;2751;49.802;9.944;2023-04-06T02:30:20;12.40;;;7.93;;
5456;SDS011;2751;49.802;9.944;2023-04-06T02:32:48;11.53;;;7.80;;
5456;SDS011;2751;49.802;9.944;2023-04-06T02:35:15;14.07;;;7.90;;
5456;SDS011;2751;49.802;9.944;2023-04-06T02:37:42;9.30;;;7.50;;
5456;SDS011;2751;49.802;9.944;2023-04-06T02:40:09;10.50;;;8.13;;
5456;SDS011;2751;49.802;9.944;2023-04-06T02:42:36;9.97;;;7.80;;
5456;SDS011;2751;49.802;9.944;2023-04-06T02:45:03;9.40;;;7.47;;
5456;SDS011;2751;49.802;9.944;2023-04-06T02:47:31;14.10;;;8.90;;
5456;SDS011;2751;49.802;9.944;2023-04-06T02:50:00;9.40;;;7.40;;
5456;SDS011;2751;49.802;9.944;2023-04-06T02:52:27;9.30;;;8.03;;
5456;SDS011;2751;49.802;9.944;2023-04-06T02:54:53;11.23;;;8.77;;
5456;SDS011;2751;49.802;9.944;2023-04-06T02:57:20;12.13;;;8.10;;
5456;SDS011;2751;49.802;9.944;2023-04-06T02:59:47;10.90;;;6.90;;
5456;SDS011;2751;49.802;9.944;2023-04-06T03:02:14;10.13;;;8.37;;
5456;SDS011;2751;49.802;9.944;2023-04-06T03:04:41;12.43;;;8.40;;
5456;SDS011;2751;49.802;9.944;2023-04-06T03:07:10;13.30;;;8.23;;
5456;SDS011;2751;49.802;9.944;2023-04-06T03:09:37;9.60;;;7.80;;
5456;SDS011;2751;49.802;9.944;2023-04-06T03:12:04;14.67;;;8.50;;
5456;SDS011;2751;49.802;9.944;2023-04-06T03:14:31;15.27;;;8.07;;
5456;SDS011;2751;49.802;9.944;2023-04-06T03:16:58;10.03;;;7.80;;
5456;SDS011;2751;49.802;9.944;2023-04-06T03:19:25;9.93;;;7.80;;
5456;SDS011;2751;49.802;9.944;2023-04-06T03:21:52;9.10;;;7.63;;
5456;SDS011;2751;49.802;9.944;2023-04-06T03:24:20;13.23;;;8.30;;
5456;SDS011;2751;49.802;9.944;2023-04-06T03:26:47;10.57;;;7.50;;
5456;SDS011;2751;49.802;9.944;2023-04-06T03:29:14;10.80;;;7.77;;
5456;SDS011;2751;49.802;9.944;2023-04-06T03:31:41;13.30;;;8.40;;
5456;SDS011;2751;49.802;9.944;2023-04-06T03:34:08;11.10;;;7.77;;
5456;SDS011;2751;49.802;9.944;2023-04-06T03:36:35;11.10;;;8.20;;
5456;SDS011;2751;49.802;9.944;2023-04-06T03:39:02;12.23;;;7.97;;
5456;SDS011;2751;49.802;9.944;2023-04-06T03:41:30;12.23;;;8.17;;
5456;SDS011;2751;49.802;9.944;2023-04-06T03:43:57;14.10;;;8.00;;
5456;SDS011;2751;49.802;9.944;2023-04-06T03:46:24;10.43;;;7.43;;
5456;SDS011;2751;49.802;9.944;2023-04-06T03:48:51;10.87;;;7.80;;
5456;SDS011;2751;49.802;9.944;2023-04-06T03:51:18;8.63;;;6.83;;
5456;SDS011;2751;49.802;9.944;2023-04-06T03:53:44;10.30;;;7.67;;
5456;SDS011;2751;49.802;9.944;2023-04-06T03:56:11;9.07;;;6.70;;
5456;SDS011;2751;49.802;9.944;2023-04-06T03:58:40;9.17;;;6.80;;
5456;SDS011;2751;49.802;9.944;2023-04-06T04:01:07;9.00;;;7.13;;
5456;SDS011;2751;49.802;9.944;2023-04-06T04:03:33;13.97;;;8.43;;
5456;SDS011;2751;49.802;9.944;2023-04-06T04:06:00;10.60;;;7.67;;
5456;SDS011;2751;49.802;9.944;2023-04-06T04:08:27;13.67;;;7.30;;
5456;SDS011;2751;49.802;9.944;2023-04-06T04:10:54;7.90;;;6.30;;
5456;SDS011;2751;49.802;9.944;2023-04-06T04:13:21;8.50;;;6.97;;
5456;SDS011;2751;49.802;9.944;2023-04-06T04:15:49;13.60;;;8.37;;
5456;SDS011;2751;49.802;9.944;2023-04-06T04:18:16;13.93;;;7.43;;
5456;SDS011;2751;49.802;9.944;2023-04-06T04:20:43;12.40;;;8.47;;
5456;SDS011;2751;49.802;9.944;2023-04-06T04:23:10;9.63;;;7.53;;
5456;SDS011;2751;49.802;9.944;2023-04-06T04:25:37;8.87;;;7.90;;
5456;SDS011;2751;49.802;9.944;2023-04-06T04:28:13;12.00;;;7.20;;
5456;SDS011;2751;49.802;9.944;2023-04-06T04:30:40;12.03;;;8.53;;
5456;SDS011;2751;49.802;9.944;2023-04-06T04:33:08;15.37;;;8.60;;
5456;SDS011;2751;49.802;9.944;2023-04-06T04:35:35;16.43;;;8.20;;
5456;SDS011;2751;49.802;9.944;2023-04-06T04:38:02;20.00;;;7.50;;
5456;SDS011;2751;49.802;9.944;2023-04-06T04:40:29;11.80;;;7.50;;
5456;SDS011;2751;49.802;9.944;2023-04-06T04:42:55;14.47;;;9.10;;
5456;SDS011;2751;49.802;9.944;2023-04-06T04:45:22;11.50;;;7.30;;
5456;SDS011;2751;49.802;9.944;2023-04-06T04:47:49;12.27;;;8.00;;
5456;SDS011;2751;49.802;9.944;2023-04-06T04:50:17;13.13;;;9.50;;
5456;SDS011;2751;49.802;9.944;2023-04-06T04:52:44;15.20;;;8.30;;
5456;SDS011;2751;49.802;9.944;2023-04-06T04:55:11;11.20;;;8.40;;
5456;SDS011;2751;49.802;9.944;2023-04-06T04:57:38;11.73;;;6.53;;
5456;SDS011;2751;49.802;9.944;2023-04-06T05:00:05;13.43;;;6.60;;
5456;SDS011;2751;49.802;9.944;2023-04-06T05:02:33;11.20;;;6.80;;
5456;SDS011;2751;49.802;9.944;2023-04-06T05:05:00;11.47;;;6.87;;
5456;SDS011;2751;49.802;9.944;2023-04-06T05:07:28;10.33;;;7.67;;
5456;SDS011;2751;49.802;9.944;2023-04-06T05:09:55;8.90;;;6.30;;
5456;SDS011;2751;49.802;9.944;2023-04-06T05:12:22;9.77;;;7.17;;
5456;SDS011;2751;49.802;9.944;2023-04-06T05:14:49;11.10;;;7.90;;
5456;SDS011;2751;49.802;9.944;2023-04-06T05:17:16;16.40;;;7.03;;
5456;SDS011;2751;49.802;9.944;2023-04-06T05:19:43;11.80;;;6.77;;
5456;SDS011;2751;49.802;9.944;2023-04-06T05:22:10;12.30;;;6.90;;
5456;SDS011;2751;49.802;9.944;2023-04-06T05:24:40;12.90;;;7.60;;
5456;SDS011;2751;49.802;9.944;2023-04-06T05:27:07;11.37;;;7.30;;
5456;SDS011;2751;49.802;9.944;2023-04-06T05:29:34;10.10;;;6.93;;
5456;SDS011;2751;49.802;9.944;2023-04-06T05:32:01;10.70;;;7.50;;
5456;SDS011;2751;49.802;9.944;2023-04-06T05:34:28;12.80;;;7.67;;
5456;SDS011;2751;49.802;9.944;2023-04-06T05:36:55;11.17;;;7.70;;
5456;SDS011;2751;49.802;9.944;2023-04-06T05:39:22;13.40;;;7.90;;
5456;SDS011;2751;49.802;9.944;2023-04-06T05:41:50;11.00;;;7.07;;
5456;SDS011;2751;49.802;9.944;2023-04-06T05:44:17;14.93;;;7.60;;
5456;SDS011;2751;49.802;9.944;2023-04-06T05:46:44;15.00;;;7.70;;
5456;SDS011;2751;49.802;9.944;2023-04-06T05:49:11;14.63;;;7.87;;
5456;SDS011;2751;49.802;9.944;2023-04-06T05:51:38;12.17;;;7.47;;
5456;SDS011;2751;49.802;9.944;2023-04-06T05:54:05;10.57;;;7.67;;
5456;SDS011;2751;49.802;9.944;2023-04-06T05:56:32;10.13;;;7.30;;
5456;SDS011;2751;49.802;9.944;2023-04-06T05:59:00;9.77;;;8.10;;
5456;SDS011;2751;49.802;9.944;2023-04-06T06:01:27;12.90;;;9.60;;
5456;SDS011;2751;49.802;9.944;2023-04-06T06:03:54;12.47;;;8.60;;
5456;SDS011;2751;49.802;9.944;2023-04-06T06:06:21;11.90;;;8.73;;
5456;SDS011;2751;49.802;9.944;2023-04-06T06:08:47;14.60;;;8.40;;
5456;SDS011;2751;49.802;9.944;2023-04-06T06:11:14;10.43;;;8.10;;
5456;SDS011;2751;49.802;9.944;2023-04-06T06:13:41;10.40;;;8.63;;
5456;SDS011;2751;49.802;9.944;2023-04-06T06:16:09;11.50;;;8.50;;
5456;SDS011;2751;49.802;9.944;2023-04-06T06:18:36;14.80;;;8.60;;
5456;SDS011;2751;49.802;9.944;2023-04-06T06:21:03;11.60;;;7.90;;
5456;SDS011;2751;49.802;9.944;2023-04-06T06:23:30;12.57;;;8.27;;
5456;SDS011;2751;49.802;9.944;2023-04-06T06:25:57;14.47;;;9.07;;
5456;SDS011;2751;49.802;9.944;2023-04-06T06:28:24;12.70;;;8.20;;
5456;SDS011;2751;49.802;9.944;2023-04-06T06:30:51;11.33;;;9.27;;
5456;SDS011;2751;49.802;9.944;2023-04-06T06:33:19;19.17;;;11.70;;
5456;SDS011;2751;49.802;9.944;2023-04-06T06:35:46;13.90;;;8.17;;
5456;SDS011;2751;49.802;9.944;2023-04-06T06:38:13;9.83;;;7.97;;
5456;SDS011;2751;49.802;9.944;2023-04-06T06:40:40;13.10;;;8.57;;
5456;SDS011;2751;49.802;9.944;2023-04-06T06:43:07;16.37;;;8.43;;
5456;SDS011;2751;49.802;9.944;2023-04-06T06:45:34;18.40;;;8.70;;
5456;SDS011;2751;49.802;9.944;2023-04-06T06:48:01;16.77;;;9.07;;
5456;SDS011;2751;49.802;9.944;2023-04-06T06:50:29;15.27;;;9.13;;
5456;SDS011;2751;49.802;9.944;2023-04-06T06:52:56;10.40;;;7.70;;
5456;SDS011;2751;49.802;9.944;2023-04-06T06:55:23;9.37;;;7.97;;
5456;SDS011;2751;49.802;9.944;2023-04-06T06:57:50;10.33;;;8.30;;
5456;SDS011;2751;49.802;9.944;2023-04-06T07:00:17;10.87;;;7.97;;
5456;SDS011;2751;49.802;9.944;2023-04-06T07:02:46;12.70;;;8.50;;
5456;SDS011;2751;49.802;9.944;2023-04-06T07:05:13;12.17;;;7.20;;
5456;SDS011;2751;49.802;9.944;2023-04-06T07:07:41;8.30;;;7.40;;
5456;SDS011;2751;49.802;9.944;2023-04-06T07:10:08;7.33;;;6.63;;
5456;SDS011;2751;49.802;9.944;2023-04-06T07:12:36;9.60;;;7.90;;
5456;SDS011;2751;49.802;9.944;2023-04-06T07:15:03;10.60;;;7.30;;
5456;SDS011;2751;49.802;9.944;2023-04-06T07:17:30;14.80;;;7.87;;
5456;SDS011;2751;49.802;9.944;2023-04-06T07:19:57;9.80;;;7.13;;
5456;SDS011;2751;49.802;9.944;2023-04-06T07:22:24;12.77;;;7.83;;
5456;SDS011;2751;49.802;9.944;2023-04-06T07:24:52;12.00;;;8.00;;
5456;SDS011;2751;49.802;9.944;2023-04-06T07:27:19;8.50;;;7.70;;
5456;SDS011;2751;49.802;9.944;2023-04-06T07:29:46;29.93;;;8.93;;
5456;SDS011;2751;49.802;9.944;2023-04-06T07:32:13;11.37;;;8.23;;
5456;SDS011;2751;49.802;9.944;2023-04-06T07:34:40;11.53;;;8.53;;
5456;SDS011;2751;49.802;9.944;2023-04-06T07:37:07;9.30;;;8.40;;
5456;SDS011;2751;49.802;9.944;2023-04-06T07:39:34;10.47;;;8.40;;
5456;SDS011;2751;49.802;9.944;2023-04-06T07:42:02;12.37;;;8.50;;
5456;SDS011;2751;49.802;9.944;2023-04-06T07:44:29;8.60;;;7.53;;
5456;SDS011;2751;49.802;9.944;2023-04-06T07:46:56;10.53;;;7.60;;
5456;SDS011;2751;49.802;9.944;2023-04-06T07:49:23;8.90;;;7.30;;
5456;SDS011;2751;49.802;9.944;2023-04-06T07:51:50;8.53;;;7.63;;
5456;SDS011;2751;49.802;9.944;2023-04-06T07:54:17;11.57;;;8.50;;
5456;SDS011;2751;49.802;9.944;2023-04-06T07:56:44;10.03;;;7.60;;
5456;SDS011;2751;49.802;9.944;2023-04-06T07:59:13;9.63;;;7.60;;
5456;SDS011;2751;49.802;9.944;2023-04-06T08:01:39;8.00;;;7.20;;
5456;SDS011;2751;49.802;9.944;2023-04-06T08:04:06;9.33;;;8.43;;
5456;SDS011;2751;49.802;9.944;2023-04-06T08:06:33;12.63;;;7.30;;
5456;SDS011;2751;49.802;9.944;2023-04-06T08:09:01;20.77;;;8.70;;
5456;SDS011;2751;49.802;9.944;2023-04-06T08:11:28;8.60;;;7.70;;
5456;SDS011;2751;49.802;9.944;2023-04-06T08:13:55;8.90;;;7.63;;
5456;SDS011;2751;49.802;9.944;2023-04-06T08:16:24;9.07;;;7.93;;
5456;SDS011;2751;49.802;9.944;2023-04-06T08:18:51;9.13;;;7.53;;
5456;SDS011;2751;49.802;9.944;2023-04-06T08:21:17;9.60;;;8.17;;
5456;SDS011;2751;49.802;9.944;2023-04-06T08:23:44;9.20;;;7.10;;
5456;SDS011;2751;49.802;9.944;2023-04-06T08:26:12;10.77;;;8.73;;
5456;SDS011;2751;49.802;9.944;2023-04-06T08:28:39;11.80;;;8.80;;
5456;SDS011;2751;49.802;9.944;2023-04-06T08:31:06;9.83;;;8.47;;
5456;SDS011;2751;49.802;9.944;2023-04-06T08:33:37;8.70;;;7.80;;
5456;SDS011;2751;49.802;9.944;2023-04-06T08:36:11;10.53;;;8.87;;
5456;SDS011;2751;49.802;9.944;2023-04-06T08:38:48;8.80;;;7.90;;
5456;SDS011;2751;49.802;9.944;2023-04-06T08:41:15;9.10;;;8.20;;
5456;SDS011;2751;49.802;9.944;2023-04-06T08:43:48;15.17;;;7.90;;
5456;SDS011;2751;49.802;9.944;2023-04-06T08:46:32;10.03;;;7.93;;
5456;SDS011;2751;49.802;9.944;2023-04-06T08:49:07;10.83;;;8.03;;
5456;SDS011;2751;49.802;9.944;2023-04-06T08:51:34;9.07;;;7.70;;
5456;SDS011;2751;49.802;9.944;2023-04-06T08:54:03;9.97;;;8.43;;
5456;SDS011;2751;49.802;9.944;2023-04-06T08:56:30;13.43;;;10.83;;
5456;SDS011;2751;49.802;9.944;2023-04-06T08:58:57;17.10;;;13.00;;
5456;SDS011;2751;49.802;9.944;2023-04-06T09:01:25;9.57;;;8.10;;
5456;SDS011;2751;49.802;9.944;2023-04-06T09:03:56;8.47;;;7.67;;
5456;SDS011;2751;49.802;9.944;2023-04-06T09:06:26;12.10;;;8.43;;
5456;SDS011;2751;49.802;9.944;2023-04-06T09:08:53;12.63;;;10.97;;
5456;SDS011;2751;49.802;9.944;2023-04-06T09:11:21;10.73;;;9.30;;
5456;SDS011;2751;49.802;9.944;2023-04-06T09:13:49;10.73;;;9.63;;
5456;SDS011;2751;49.802;9.944;2023-04-06T09:16:17;12.57;;;9.90;;
5456;SDS011;2751;49.802;9.944;2023-04-06T09:18:44;15.77;;;10.17;;
5456;SDS011;2751;49.802;9.944;2023-04-06T09:21:12;13.87;;;9.40;;
5456;SDS011;2751;49.802;9.944;2023-04-06T09:23:40;10.20;;;9.20;;
5456;SDS011;2751;49.802;9.944;2023-04-06T09:26:08;10.20;;;9.20;;
5456;SDS011;2751;49.802;9.944;2023-04-06T09:28:42;12.20;;;9.57;;
5456;SDS011;2751;49.802;9.944;2023-04-06T09:31:10;10.53;;;9.60;;
5456;SDS011;2751;49.802;9.944;2023-04-06T09:33:37;10.47;;;9.57;;
5456;SDS011;2751;49.802;9.944;2023-04-06T09:36:05;12.80;;;10.90;;
5456;SDS011;2751;49.802;9.944;2023-04-06T09:38:34;10.77;;;9.67;;
5456;SDS011;2751;49.802;9.944;2023-04-06T09:41:04;14.63;;;10.33;;
5456;SDS011;2751;49.802;9.944;2023-04-06T09:43:31;11.60;;;9.80;;
5456;SDS011;2751;49.802;9.944;2023-04-06T09:45:58;12.27;;;9.70;;
5456;SDS011;2751;49.802;9.944;2023-04-06T09:48:28;13.60;;;10.10;;
5456;SDS011;2751;49.802;9.944;2023-04-06T09:50:58;12.27;;;9.90;;
5456;SDS011;2751;49.802;9.944;2023-04-06T09:53:29;11.43;;;10.27;;
5456;SDS011;2751;49.802;9.944;2023-04-06T09:55:57;12.13;;;11.03;;
5456;SDS011;2751;49.802;9.944;2023-04-06T09:58:30;10.37;;;9.47;;
5456;SDS011;2751;49.802;9.944;2023-04-06T10:01:01;10.23;;;9.30;;
5456;SDS011;2751;49.802;9.944;2023-04-06T10:03:34;9.60;;;8.80;;
5456;SDS011;2751;49.802;9.944;2023-04-06T10:06:10;9.20;;;8.30;;
5456;SDS011;2751;49.802;9.944;2023-04-06T10:08:40;11.07;;;9.93;;
5456;SDS011;2751;49.802;9.944;2023-04-06T10:11:09;9.50;;;8.80;;
5456;SDS011;2751;49.802;9.944;2023-04-06T10:13:37;9.80;;;8.90;;
5456;SDS011;2751;49.802;9.944;2023-04-06T10:16:04;10.13;;;8.43;;
5456;SDS011;2751;49.802;9.944;2023-04-06T10:18:32;8.97;;;8.17;;
5456;SDS011;2751;49.802;9.944;2023-04-06T10:21:00;8.30;;;7.60;;
5456;SDS011;2751;49.802;9.944;2023-04-06T10:23:32;9.70;;;8.80;;
5456;SDS011;2751;49.802;9.944;2023-04-06T10:26:02;8.90;;;8.10;;
5456;SDS011;2751;49.802;9.944;2023-04-06T10:28:30;11.73;;;9.30;;
5456;SDS011;2751;49.802;9.944;2023-04-06T10:31:00;9.67;;;8.87;;
5456;SDS011;2751;49.802;9.944;2023-04-06T10:33:28;10.57;;;9.50;;
5456;SDS011;2751;49.802;9.944;2023-04-06T10:35:55;9.43;;;8.63;;
5456;SDS011;2751;49.802;9.944;2023-04-06T10:38:32;10.10;;;8.60;;
5456;SDS011;2751;49.802;9.944;2023-04-06T10:41:03;9.63;;;8.83;;
5456;SDS011;2751;49.802;9.944;2023-04-06T10:43:32;10.47;;;9.53;;
5456;SDS011;2751;49.802;9.944;2023-04-06T10:46:02;9.80;;;8.90;;
5456;SDS011;2751;49.802;9.944;2023-04-06T10:48:36;11.03;;;9.33;;
5456;SDS011;2751;49.802;9.944;2023-04-06T10:51:07;9.73;;;8.70;;
5456;SDS011;2751;49.802;9.944;2023-04-06T10:53:35;10.87;;;9.80;;
5456;SDS011;2751;49.802;9.944;2023-04-06T10:56:02;10.47;;;9.40;;
5456;SDS011;2751;49.802;9.944;2023-04-06T10:58:35;11.40;;;10.23;;
5456;SDS011;2751;49.802;9.944;2023-04-06T11:01:03;10.30;;;9.30;;
5456;SDS011;2751;49.802;9.944;2023-04-06T11:03:31;10.50;;;9.57;;
5456;SDS011;2751;49.802;9.944;2023-04-06T11:05:59;10.27;;;9.30;;
5456;SDS011;2751;49.802;9.944;2023-04-06T11:08:26;10.40;;;9.30;;
5456;SDS011;2751;49.802;9.944;2023-04-06T11:11:04;11.70;;;9.50;;
5456;SDS011;2751;49.802;9.944;2023-04-06T11:13:41;9.87;;;8.97;;
5456;SDS011;2751;49.802;9.944;2023-04-06T11:16:14;10.07;;;9.17;;
5456;SDS011;2751;49.802;9.944;2023-04-06T11:18:51;9.80;;;8.90;;
5456;SDS011;2751;49.802;9.944;2023-04-06T11:21:20;8.77;;;8.07;;
5456;SDS011;2751;49.802;9.944;2023-04-06T11:24:03;9.63;;;8.63;;
5456;SDS011;2751;49.802;9.944;2023-04-06T11:26:31;9.73;;;8.77;;
5456;SDS011;2751;49.802;9.944;2023-04-06T11:29:02;9.30;;;8.40;;
5456;SDS011;2751;49.802;9.944;2023-04-06T11:31:31;9.97;;;8.73;;
5456;SDS011;2751;49.802;9.944;2023-04-06T11:34:08;9.40;;;8.60;;
5456;SDS011;2751;49.802;9.944;2023-04-06T11:36:35;9.40;;;8.57;;
5456;SDS011;2751;49.802;9.944;2023-04-06T11:39:06;10.27;;;9.37;;
5456;SDS011;2751;49.802;9.944;2023-04-06T11:41:33;11.30;;;9.53;;
5456;SDS011;2751;49.802;9.944;2023-04-06T11:44:01;11.33;;;9.90;;
5456;SDS011;2751;49.802;9.944;2023-04-06T11:46:28;11.87;;;10.77;;
5456;SDS011;2751;49.802;9.944;2023-04-06T11:48:58;10.57;;;9.33;;
5456;SDS011;2751;49.802;9.944;2023-04-06T11:51:26;10.60;;;9.57;;
5456;SDS011;2751;49.802;9.944;2023-04-06T11:53:53;11.23;;;10.07;;
5456;SDS011;2751;49.802;9.944;2023-04-06T11:56:24;11.53;;;10.43;;
5456;SDS011;2751;49.802;9.944;2023-04-06T11:58:52;11.93;;;9.90;;
5456;SDS011;2751;49.802;9.944;2023-04-06T12:01:21;10.13;;;9.20;;
5456;SDS011;2751;49.802;9.944;2023-04-06T12:03:48;11.13;;;10.13;;
5456;SDS011;2751;49.802;9.944;2023-04-06T12:06:16;10.77;;;9.77;;
5456;SDS011;2751;49.802;9.944;2023-04-06T12:08:43;10.90;;;9.60;;
5456;SDS011;2751;49.802;9.944;2023-04-06T12:11:10;9.33;;;8.53;;
5456;SDS011;2751;49.802;9.944;2023-04-06T12:13:37;9.13;;;8.20;;
5456;SDS011;2751;49.802;9.944;2023-04-06T12:16:04;9.77;;;8.77;;
5456;SDS011;2751;49.802;9.944;2023-04-06T12:18:32;9.87;;;8.97;;
5456;SDS011;2751;49.802;9.944;2023-04-06T12:20:58;9.27;;;8.47;;
5456;SDS011;2751;49.802;9.944;2023-04-06T12:23:27;9.00;;;8.20;;
5456;SDS011;2751;49.802;9.944;2023-04-06T12:25:54;8.73;;;7.93;;
5456;SDS011;2751;49.802;9.944;2023-04-06T12:28:20;9.00;;;8.10;;
5456;SDS011;2751;49.802;9.944;2023-04-06T12:30:51;9.87;;;8.90;;
5456;SDS011;2751;49.802;9.944;2023-04-06T12:33:19;9.17;;;8.33;;
5456;SDS011;2751;49.802;9.944;2023-04-06T12:35:46;9.30;;;8.40;;
5456;SDS011;2751;49.802;9.944;2023-04-06T12:38:13;9.87;;;8.87;;
5456;SDS011;2751;49.802;9.944;2023-04-06T12:40:41;10.00;;;8.97;;
5456;SDS011;2751;49.802;9.944;2023-04-06T12:43:08;9.30;;;8.40;;
5456;SDS011;2751;49.802;9.944;2023-04-06T12:45:35;10.07;;;9.07;;
5456;SDS011;2751;49.802;9.944;2023-04-06T12:48:02;9.50;;;8.60;;
5456;SDS011;2751;49.802;9.944;2023-04-06T12:50:29;8.63;;;7.93;;
5456;SDS011;2751;49.802;9.944;2023-04-06T12:52:56;8.87;;;7.97;;
5456;SDS011;2751;49.802;9.944;2023-04-06T12:55:23;10.77;;;8.33;;
5456;SDS011;2751;49.802;9.944;2023-04-06T12:57:51;8.93;;;8.13;;
5456;SDS011;2751;49.802;9.944;2023-04-06T13:00:18;8.50;;;7.57;;
5456;SDS011;2751;49.802;9.944;2023-04-06T13:02:46;9.10;;;8.30;;
5456;SDS011;2751;49.802;9.944;2023-04-06T13:05:13;8.27;;;7.47;;
5456;SDS011;2751;49.802;9.944;2023-04-06T13:07:43;8.90;;;7.67;;
5456;SDS011;2751;49.802;9.944;2023-04-06T13:10:11;12.37;;;11.10;;
5456;SDS011;2751;49.802;9.944;2023-04-06T13:12:38;9.80;;;8.90;;
5456;SDS011;2751;49.802;9.944;2023-04-06T13:15:07;8.80;;;8.00;;
5456;SDS011;2751;49.802;9.944;2023-04-06T13:17:35;8.10;;;7.50;;
5456;SDS011;2751;49.802;9.944;2023-04-06T13:20:02;11.50;;;8.17;;
5456;SDS011;2751;49.802;9.944;2023-04-06T13:22:31;8.90;;;8.13;;
5456;SDS011;2751;49.802;9.944;2023-04-06T13:24:57;9.10;;;8.20;;
5456;SDS011;2751;49.802;9.944;2023-04-06T13:27:24;16.50;;;8.97;;
5456;SDS011;2751;49.802;9.944;2023-04-06T13:29:52;9.30;;;8.40;;
5456;SDS011;2751;49.802;9.944;2023-04-06T13:32:20;10.97;;;8.57;;
5456;SDS011;2751;49.802;9.944;2023-04-06T13:34:47;11.17;;;8.40;;
5456;SDS011;2751;49.802;9.944;2023-04-06T13:37:14;9.07;;;8.00;;
5456;SDS011;2751;49.802;9.944;2023-04-06T13:39:41;8.60;;;7.80;;
5456;SDS011;2751;49.802;9.944;2023-04-06T13:42:08;8.87;;;7.83;;
5456;SDS011;2751;49.802;9.944;2023-04-06T13:44:36;8.20;;;7.47;;
5456;SDS011;2751;49.802;9.944;2023-04-06T13:47:02;8.33;;;7.50;;
5456;SDS011;2751;49.802;9.944;2023-04-06T13:49:31;8.87;;;8.00;;
5456;SDS011;2751;49.802;9.944;2023-04-06T13:51:58;9.20;;;7.97;;
5456;SDS011;2751;49.802;9.944;2023-04-06T13:54:26;9.00;;;8.10;;
5456;SDS011;2751;49.802;9.944;2023-04-06T13:56:53;9.10;;;7.60;;
5456;SDS011;2751;49.802;9.944;2023-04-06T13:59:20;10.97;;;9.30;;
5456;SDS011;2751;49.802;9.944;2023-04-06T14:01:47;11.87;;;8.10;;
5456;SDS011;2751;49.802;9.944;2023-04-06T14:04:14;8.80;;;7.70;;
5456;SDS011;2751;49.802;9.944;2023-04-06T14:06:44;10.00;;;8.00;;
5456;SDS011;2751;49.802;9.944;2023-04-06T14:09:11;8.47;;;6.97;;
5456;SDS011;2751;49.802;9.944;2023-04-06T14:11:37;10.73;;;8.47;;
5456;SDS011;2751;49.802;9.944;2023-04-06T14:14:04;8.83;;;7.93;;
5456;SDS011;2751;49.802;9.944;2023-04-06T14:16:32;8.50;;;7.63;;
5456;SDS011;2751;49.802;9.944;2023-04-06T14:18:58;8.87;;;7.80;;
5456;SDS011;2751;49.802;9.944;2023-04-06T14:21:25;8.13;;;7.33;;
5456;SDS011;2751;49.802;9.944;2023-04-06T14:23:54;8.07;;;7.27;;
5456;SDS011;2751;49.802;9.944;2023-04-06T14:26:21;10.60;;;7.70;;
5456;SDS011;2751;49.802;9.944;2023-04-06T14:28:49;8.30;;;7.50;;
5456;SDS011;2751;49.802;9.944;2023-04-06T14:31:16;8.83;;;7.93;;
5456;SDS011;2751;49.802;9.944;2023-04-06T14:33:44;9.80;;;7.93;;
5456;SDS011;2751;49.802;9.944;2023-04-06T14:36:11;8.03;;;7.20;;
5456;SDS011;2751;49.802;9.944;2023-04-06T14:38:37;8.37;;;7.50;;
5456;SDS011;2751;49.802;9.944;2023-04-06T14:41:07;8.70;;;7.80;;
5456;SDS011;2751;49.802;9.944;2023-04-06T14:43:34;9.20;;;7.10;;
5456;SDS011;2751;49.802;9.944;2023-04-06T14:46:01;9.27;;;7.70;;
5456;SDS011;2751;49.802;9.944;2023-04-06T14:48:28;7.20;;;6.10;;
5456;SDS011;2751;49.802;9.944;2023-04-06T14:50:55;7.67;;;6.87;;
5456;SDS011;2751;49.802;9.944;2023-04-06T14:53:22;8.20;;;7.33;;
5456;SDS011;2751;49.802;9.944;2023-04-06T14:55:50;11.53;;;7.90;;
5456;SDS011;2751;49.802;9.944;2023-04-06T14:58:19;8.40;;;7.50;;
5456;SDS011;2751;49.802;9.944;2023-04-06T15:00:47;8.03;;;7.23;;
5456;SDS011;2751;49.802;9.944;2023-04-06T15:03:14;10.40;;;7.63;;
5456;SDS011;2751;49.802;9.944;2023-04-06T15:05:41;8.90;;;6.37;;
5456;SDS011;2751;49.802;9.944;2023-04-06T15:08:08;8.57;;;7.10;;